Accueil
METAR-TAF:

METAR-TAF

Aéroports :

Madrid, Espagne

Aéroport Adolfo-Suárez de Madrid-Barajas

latitude: 40-27N, longitude: 003-33W, altitude: 609 m

Observation

Le bulletin a été fait il y a 39 minutes, à 23:30 UTC
Vent 4 kt de nord
Température 5°C
Humidité 70%
Pression 1016 hPa
Visibilité 10 km ou plus
pas de nuages en-dessous de 1500 mètres et pas de cumulonimbus.

METAR: LEMD 222330Z 36004KT CAVOK 05/M00 Q1016 NOSIG

Heure: 01:09 (00:09 UTC)

Prévision

Le bulletin a été fait il y a 1 heure et 9 minutes, à 23:00 UTC
Prévision valable du 23 à 00 UTC au 24 à 06 UTC
Vent 5 kt de direction variable
Visibilité 10 km ou plus
pas de nuages en-dessous de 1500 mètres et pas de cumulonimbus.
Probabilité 30% :
Temporairement
du 23 à 12 UTC au 23 à 17 UTC
Vent 10 kt de sud-ouest

TAF: LEMD 222300Z 2300/2406 VRB05KT CAVOK TX18/2315Z TN04/2306Z PROB30 TEMPO 2312/2317 23010KT

Observations et prévisions météorologiques de plus de 4000 aéroports (messages METAR et TAF).

Les stations disponibles sont représentées par des disques jaunes et rouges sur la carte.

Passer la souris dessus pour voir le nom de la station.

Cliquer dessus pour voir les observations et prévisions météorologiques.

Pour changer de carte: cliquez sur les boutons verts avec une croix noire pour zoomer, sur le bouton vert avec un tiret pour effectuer un zoom arrière, ou sur les flèches vertes pour les cartes adjacentes.


METAR-TAF: